sensor_id;sensor_type;location;lat;lon;timestamp;P1;durP1;ratioP1;P2;durP2;ratioP2
3261;SDS011;1643;47.746;9.000;2023-03-23T00:01:15;4.90;;;3.47;;
3261;SDS011;1643;47.746;9.000;2023-03-23T00:03:44;3.27;;;2.97;;
3261;SDS011;1643;47.746;9.000;2023-03-23T00:06:11;4.23;;;2.80;;
3261;SDS011;1643;47.746;9.000;2023-03-23T00:08:42;3.80;;;3.13;;
3261;SDS011;1643;47.746;9.000;2023-03-23T00:11:12;4.00;;;2.90;;
3261;SDS011;1643;47.746;9.000;2023-03-23T00:13:44;2.90;;;2.60;;
3261;SDS011;1643;47.746;9.000;2023-03-23T00:16:11;5.30;;;3.13;;
3261;SDS011;1643;47.746;9.000;2023-03-23T00:18:47;3.17;;;2.77;;
3261;SDS011;1643;47.746;9.000;2023-03-23T00:21:17;3.33;;;2.50;;
3261;SDS011;1643;47.746;9.000;2023-03-23T00:23:43;2.80;;;2.60;;
3261;SDS011;1643;47.746;9.000;2023-03-23T00:26:09;4.47;;;3.37;;
3261;SDS011;1643;47.746;9.000;2023-03-23T00:28:36;3.67;;;3.10;;
3261;SDS011;1643;47.746;9.000;2023-03-23T00:31:05;4.83;;;3.70;;
3261;SDS011;1643;47.746;9.000;2023-03-23T00:33:32;3.00;;;2.80;;
3261;SDS011;1643;47.746;9.000;2023-03-23T00:36:03;4.07;;;3.47;;
3261;SDS011;1643;47.746;9.000;2023-03-23T00:38:29;5.53;;;3.00;;
3261;SDS011;1643;47.746;9.000;2023-03-23T00:40:55;3.87;;;3.50;;
3261;SDS011;1643;47.746;9.000;2023-03-23T00:43:22;2.90;;;2.60;;
3261;SDS011;1643;47.746;9.000;2023-03-23T00:45:49;3.07;;;2.30;;
3261;SDS011;1643;47.746;9.000;2023-03-23T00:48:23;2.57;;;2.37;;
3261;SDS011;1643;47.746;9.000;2023-03-23T00:50:50;2.70;;;2.50;;
3261;SDS011;1643;47.746;9.000;2023-03-23T00:53:17;4.60;;;3.10;;
3261;SDS011;1643;47.746;9.000;2023-03-23T00:55:44;6.73;;;2.77;;
3261;SDS011;1643;47.746;9.000;2023-03-23T00:58:11;4.30;;;2.83;;
3261;SDS011;1643;47.746;9.000;2023-03-23T01:00:37;3.57;;;2.57;;
3261;SDS011;1643;47.746;9.000;2023-03-23T01:03:04;4.20;;;2.40;;
3261;SDS011;1643;47.746;9.000;2023-03-23T01:05:34;2.30;;;2.10;;
3261;SDS011;1643;47.746;9.000;2023-03-23T01:08:00;4.50;;;1.60;;
3261;SDS011;1643;47.746;9.000;2023-03-23T01:10:27;2.37;;;2.17;;
3261;SDS011;1643;47.746;9.000;2023-03-23T01:12:53;2.10;;;1.87;;
3261;SDS011;1643;47.746;9.000;2023-03-23T01:15:20;2.40;;;2.20;;
3261;SDS011;1643;47.746;9.000;2023-03-23T01:17:46;2.30;;;2.10;;
3261;SDS011;1643;47.746;9.000;2023-03-23T01:20:12;2.60;;;2.27;;
3261;SDS011;1643;47.746;9.000;2023-03-23T01:22:40;8.53;;;1.77;;
3261;SDS011;1643;47.746;9.000;2023-03-23T01:25:08;2.63;;;2.13;;
3261;SDS011;1643;47.746;9.000;2023-03-23T01:27:36;2.87;;;1.90;;
3261;SDS011;1643;47.746;9.000;2023-03-23T01:30:02;2.17;;;1.97;;
3261;SDS011;1643;47.746;9.000;2023-03-23T01:32:29;2.33;;;2.13;;
3261;SDS011;1643;47.746;9.000;2023-03-23T01:34:55;2.63;;;2.43;;
3261;SDS011;1643;47.746;9.000;2023-03-23T01:37:21;4.00;;;2.30;;
3261;SDS011;1643;47.746;9.000;2023-03-23T01:39:51;3.03;;;2.40;;
3261;SDS011;1643;47.746;9.000;2023-03-23T01:42:20;2.50;;;2.30;;
3261;SDS011;1643;47.746;9.000;2023-03-23T01:47:58;3.70;;;2.10;;
3261;SDS011;1643;47.746;9.000;2023-03-23T01:50:28;2.60;;;2.10;;
3261;SDS011;1643;47.746;9.000;2023-03-23T01:52:59;2.33;;;2.13;;
3261;SDS011;1643;47.746;9.000;2023-03-23T01:55:27;2.53;;;2.33;;
3261;SDS011;1643;47.746;9.000;2023-03-23T01:57:54;2.10;;;2.00;;
3261;SDS011;1643;47.746;9.000;2023-03-23T02:00:21;2.20;;;2.00;;
3261;SDS011;1643;47.746;9.000;2023-03-23T02:02:48;2.40;;;2.20;;
3261;SDS011;1643;47.746;9.000;2023-03-23T02:05:24;2.07;;;1.93;;
3261;SDS011;1643;47.746;9.000;2023-03-23T02:07:52;5.53;;;2.07;;
3261;SDS011;1643;47.746;9.000;2023-03-23T02:10:18;2.60;;;2.40;;
3261;SDS011;1643;47.746;9.000;2023-03-23T02:12:44;5.40;;;2.80;;
3261;SDS011;1643;47.746;9.000;2023-03-23T02:15:10;2.77;;;2.57;;
3261;SDS011;1643;47.746;9.000;2023-03-23T02:23:19;2.60;;;2.40;;
3261;SDS011;1643;47.746;9.000;2023-03-23T02:26:28;3.70;;;2.70;;
3261;SDS011;1643;47.746;9.000;2023-03-23T02:34:39;4.10;;;3.70;;
3261;SDS011;1643;47.746;9.000;2023-03-23T02:40:04;3.80;;;3.20;;
3261;SDS011;1643;47.746;9.000;2023-03-23T02:42:36;3.10;;;2.80;;
3261;SDS011;1643;47.746;9.000;2023-03-23T02:45:05;3.37;;;3.07;;
3261;SDS011;1643;47.746;9.000;2023-03-23T02:47:33;5.60;;;3.10;;
3261;SDS011;1643;47.746;9.000;2023-03-23T02:50:02;5.67;;;3.70;;
3261;SDS011;1643;47.746;9.000;2023-03-23T02:52:29;3.80;;;3.40;;
3261;SDS011;1643;47.746;9.000;2023-03-23T02:54:57;4.90;;;3.93;;
3261;SDS011;1643;47.746;9.000;2023-03-23T02:57:25;4.87;;;3.93;;
3261;SDS011;1643;47.746;9.000;2023-03-23T02:59:52;6.47;;;3.83;;
3261;SDS011;1643;47.746;9.000;2023-03-23T03:05:08;5.07;;;3.90;;
3261;SDS011;1643;47.746;9.000;2023-03-23T03:16:26;3.67;;;3.07;;
3261;SDS011;1643;47.746;9.000;2023-03-23T03:19:05;2.20;;;2.10;;
3261;SDS011;1643;47.746;9.000;2023-03-23T03:21:37;3.93;;;2.87;;
3261;SDS011;1643;47.746;9.000;2023-03-23T03:24:06;3.50;;;3.20;;
3261;SDS011;1643;47.746;9.000;2023-03-23T03:26:36;5.40;;;3.00;;
3261;SDS011;1643;47.746;9.000;2023-03-23T03:29:06;3.30;;;3.00;;
3261;SDS011;1643;47.746;9.000;2023-03-23T03:31:33;6.50;;;3.17;;
3261;SDS011;1643;47.746;9.000;2023-03-23T03:34:03;3.60;;;3.13;;
3261;SDS011;1643;47.746;9.000;2023-03-23T03:36:29;3.87;;;3.47;;
3261;SDS011;1643;47.746;9.000;2023-03-23T03:39:05;4.23;;;3.10;;
3261;SDS011;1643;47.746;9.000;2023-03-23T03:41:34;3.40;;;3.03;;
3261;SDS011;1643;47.746;9.000;2023-03-23T03:44:00;3.20;;;2.90;;
3261;SDS011;1643;47.746;9.000;2023-03-23T03:46:26;4.37;;;2.73;;
3261;SDS011;1643;47.746;9.000;2023-03-23T03:48:54;2.70;;;2.50;;
3261;SDS011;1643;47.746;9.000;2023-03-23T03:51:24;3.40;;;3.10;;
3261;SDS011;1643;47.746;9.000;2023-03-23T03:53:50;4.07;;;3.20;;
3261;SDS011;1643;47.746;9.000;2023-03-23T03:56:16;4.03;;;3.50;;
3261;SDS011;1643;47.746;9.000;2023-03-23T03:58:42;3.63;;;3.33;;
3261;SDS011;1643;47.746;9.000;2023-03-23T04:01:08;3.93;;;3.47;;
3261;SDS011;1643;47.746;9.000;2023-03-23T04:03:38;4.17;;;3.00;;
3261;SDS011;1643;47.746;9.000;2023-03-23T04:06:04;3.37;;;3.07;;
3261;SDS011;1643;47.746;9.000;2023-03-23T04:08:31;3.13;;;2.87;;
3261;SDS011;1643;47.746;9.000;2023-03-23T04:10:57;3.60;;;2.90;;
3261;SDS011;1643;47.746;9.000;2023-03-23T04:13:23;4.07;;;3.13;;
3261;SDS011;1643;47.746;9.000;2023-03-23T04:15:48;3.43;;;2.73;;
3261;SDS011;1643;47.746;9.000;2023-03-23T04:18:15;2.90;;;2.57;;
3261;SDS011;1643;47.746;9.000;2023-03-23T04:20:43;3.80;;;3.33;;
3261;SDS011;1643;47.746;9.000;2023-03-23T04:23:12;2.53;;;2.33;;
3261;SDS011;1643;47.746;9.000;2023-03-23T04:25:48;7.20;;;2.80;;
3261;SDS011;1643;47.746;9.000;2023-03-23T04:28:15;3.83;;;2.87;;
3261;SDS011;1643;47.746;9.000;2023-03-23T04:30:43;3.07;;;2.67;;
3261;SDS011;1643;47.746;9.000;2023-03-23T04:33:10;3.50;;;2.63;;
3261;SDS011;1643;47.746;9.000;2023-03-23T04:35:41;2.77;;;2.40;;
3261;SDS011;1643;47.746;9.000;2023-03-23T04:38:10;2.50;;;2.30;;
3261;SDS011;1643;47.746;9.000;2023-03-23T04:40:45;3.27;;;2.67;;
3261;SDS011;1643;47.746;9.000;2023-03-23T04:43:11;3.10;;;2.80;;
3261;SDS011;1643;47.746;9.000;2023-03-23T04:45:38;2.80;;;2.60;;
3261;SDS011;1643;47.746;9.000;2023-03-23T04:48:06;2.60;;;2.40;;
3261;SDS011;1643;47.746;9.000;2023-03-23T04:50:32;2.73;;;2.53;;
3261;SDS011;1643;47.746;9.000;2023-03-23T04:52:59;3.33;;;2.83;;
3261;SDS011;1643;47.746;9.000;2023-03-23T04:55:32;3.23;;;2.80;;
3261;SDS011;1643;47.746;9.000;2023-03-23T04:58:03;2.70;;;2.50;;
3261;SDS011;1643;47.746;9.000;2023-03-23T05:00:30;3.60;;;3.20;;
3261;SDS011;1643;47.746;9.000;2023-03-23T05:02:57;3.27;;;2.97;;
3261;SDS011;1643;47.746;9.000;2023-03-23T05:05:23;3.93;;;3.53;;
3261;SDS011;1643;47.746;9.000;2023-03-23T05:07:50;3.50;;;3.20;;
3261;SDS011;1643;47.746;9.000;2023-03-23T05:10:16;4.77;;;3.60;;
3261;SDS011;1643;47.746;9.000;2023-03-23T05:12:42;4.60;;;3.23;;
3261;SDS011;1643;47.746;9.000;2023-03-23T05:15:09;5.07;;;3.00;;
3261;SDS011;1643;47.746;9.000;2023-03-23T05:17:36;3.63;;;2.60;;
3261;SDS011;1643;47.746;9.000;2023-03-23T05:20:03;4.03;;;3.57;;
3261;SDS011;1643;47.746;9.000;2023-03-23T05:22:32;3.43;;;3.13;;
3261;SDS011;1643;47.746;9.000;2023-03-23T05:24:58;3.13;;;2.83;;
3261;SDS011;1643;47.746;9.000;2023-03-23T05:27:24;3.30;;;3.00;;
3261;SDS011;1643;47.746;9.000;2023-03-23T05:29:52;6.30;;;2.97;;
3261;SDS011;1643;47.746;9.000;2023-03-23T05:32:18;3.37;;;2.60;;
3261;SDS011;1643;47.746;9.000;2023-03-23T05:34:45;6.00;;;3.07;;
3261;SDS011;1643;47.746;9.000;2023-03-23T05:37:11;3.13;;;2.60;;
3261;SDS011;1643;47.746;9.000;2023-03-23T05:39:38;3.67;;;2.60;;
3261;SDS011;1643;47.746;9.000;2023-03-23T05:42:04;3.20;;;2.90;;
3261;SDS011;1643;47.746;9.000;2023-03-23T05:44:31;3.30;;;2.87;;
3261;SDS011;1643;47.746;9.000;2023-03-23T05:46:56;4.20;;;3.20;;
3261;SDS011;1643;47.746;9.000;2023-03-23T05:49:22;3.70;;;2.80;;
3261;SDS011;1643;47.746;9.000;2023-03-23T05:51:49;6.30;;;5.20;;
3261;SDS011;1643;47.746;9.000;2023-03-23T05:54:15;5.23;;;4.33;;
3261;SDS011;1643;47.746;9.000;2023-03-23T05:56:41;4.40;;;4.00;;
3261;SDS011;1643;47.746;9.000;2023-03-23T05:59:07;5.00;;;3.80;;
3261;SDS011;1643;47.746;9.000;2023-03-23T06:01:34;4.00;;;3.70;;
3261;SDS011;1643;47.746;9.000;2023-03-23T06:04:01;4.60;;;3.20;;
3261;SDS011;1643;47.746;9.000;2023-03-23T06:06:27;3.57;;;3.20;;
3261;SDS011;1643;47.746;9.000;2023-03-23T06:08:54;5.80;;;3.23;;
3261;SDS011;1643;47.746;9.000;2023-03-23T06:11:20;3.90;;;3.53;;
3261;SDS011;1643;47.746;9.000;2023-03-23T06:13:46;9.33;;;4.10;;
3261;SDS011;1643;47.746;9.000;2023-03-23T06:16:12;4.23;;;3.83;;
3261;SDS011;1643;47.746;9.000;2023-03-23T06:18:39;5.37;;;4.00;;
3261;SDS011;1643;47.746;9.000;2023-03-23T06:21:05;5.17;;;3.87;;
3261;SDS011;1643;47.746;9.000;2023-03-23T06:23:31;3.87;;;3.40;;
3261;SDS011;1643;47.746;9.000;2023-03-23T06:25:59;4.30;;;3.73;;
3261;SDS011;1643;47.746;9.000;2023-03-23T06:28:31;4.63;;;3.50;;
3261;SDS011;1643;47.746;9.000;2023-03-23T06:31:04;2.90;;;2.70;;
3261;SDS011;1643;47.746;9.000;2023-03-23T06:33:31;6.57;;;3.43;;
3261;SDS011;1643;47.746;9.000;2023-03-23T06:35:59;4.93;;;3.97;;
3261;SDS011;1643;47.746;9.000;2023-03-23T06:38:25;4.77;;;4.13;;
3261;SDS011;1643;47.746;9.000;2023-03-23T06:40:54;4.90;;;3.90;;
3261;SDS011;1643;47.746;9.000;2023-03-23T06:43:20;4.80;;;3.60;;
3261;SDS011;1643;47.746;9.000;2023-03-23T06:45:46;5.50;;;4.13;;
3261;SDS011;1643;47.746;9.000;2023-03-23T06:48:12;7.40;;;4.43;;
3261;SDS011;1643;47.746;9.000;2023-03-23T06:50:38;4.13;;;3.73;;
3261;SDS011;1643;47.746;9.000;2023-03-23T06:53:06;6.47;;;4.33;;
3261;SDS011;1643;47.746;9.000;2023-03-23T06:55:32;5.67;;;4.70;;
3261;SDS011;1643;47.746;9.000;2023-03-23T06:57:58;4.50;;;3.80;;
3261;SDS011;1643;47.746;9.000;2023-03-23T07:00:26;6.80;;;3.87;;
3261;SDS011;1643;47.746;9.000;2023-03-23T07:02:52;4.63;;;4.23;;
3261;SDS011;1643;47.746;9.000;2023-03-23T07:05:18;3.67;;;3.33;;
3261;SDS011;1643;47.746;9.000;2023-03-23T07:07:44;5.17;;;3.90;;
3261;SDS011;1643;47.746;9.000;2023-03-23T07:10:10;4.87;;;3.10;;
3261;SDS011;1643;47.746;9.000;2023-03-23T07:12:36;3.50;;;3.20;;
3261;SDS011;1643;47.746;9.000;2023-03-23T07:15:03;11.73;;;3.73;;
3261;SDS011;1643;47.746;9.000;2023-03-23T07:17:29;6.43;;;3.50;;
3261;SDS011;1643;47.746;9.000;2023-03-23T07:19:55;3.43;;;3.13;;
3261;SDS011;1643;47.746;9.000;2023-03-23T07:22:21;4.10;;;3.70;;
3261;SDS011;1643;47.746;9.000;2023-03-23T07:24:46;4.40;;;3.30;;
3261;SDS011;1643;47.746;9.000;2023-03-23T07:27:12;3.93;;;2.97;;
3261;SDS011;1643;47.746;9.000;2023-03-23T07:29:38;3.97;;;3.60;;
3261;SDS011;1643;47.746;9.000;2023-03-23T07:32:05;3.80;;;3.13;;
3261;SDS011;1643;47.746;9.000;2023-03-23T07:34:31;6.50;;;5.33;;
3261;SDS011;1643;47.746;9.000;2023-03-23T07:36:57;7.63;;;5.70;;
3261;SDS011;1643;47.746;9.000;2023-03-23T07:39:23;4.50;;;4.07;;
3261;SDS011;1643;47.746;9.000;2023-03-23T07:41:50;5.77;;;4.30;;
3261;SDS011;1643;47.746;9.000;2023-03-23T07:44:16;5.20;;;4.50;;
3261;SDS011;1643;47.746;9.000;2023-03-23T07:46:42;4.10;;;3.63;;
3261;SDS011;1643;47.746;9.000;2023-03-23T07:49:08;4.77;;;4.37;;
3261;SDS011;1643;47.746;9.000;2023-03-23T07:51:35;6.40;;;4.53;;
3261;SDS011;1643;47.746;9.000;2023-03-23T07:54:03;5.10;;;4.60;;
3261;SDS011;1643;47.746;9.000;2023-03-23T07:56:30;4.00;;;3.60;;
3261;SDS011;1643;47.746;9.000;2023-03-23T07:58:56;4.40;;;3.60;;
3261;SDS011;1643;47.746;9.000;2023-03-23T08:01:21;4.87;;;4.37;;
3261;SDS011;1643;47.746;9.000;2023-03-23T08:03:48;6.10;;;3.80;;
3261;SDS011;1643;47.746;9.000;2023-03-23T08:06:15;4.40;;;4.00;;
3261;SDS011;1643;47.746;9.000;2023-03-23T08:08:40;4.87;;;4.37;;
3261;SDS011;1643;47.746;9.000;2023-03-23T08:11:06;4.87;;;4.13;;
3261;SDS011;1643;47.746;9.000;2023-03-23T08:13:35;6.60;;;4.50;;
3261;SDS011;1643;47.746;9.000;2023-03-23T08:16:01;6.00;;;4.37;;
3261;SDS011;1643;47.746;9.000;2023-03-23T08:18:30;6.10;;;4.70;;
3261;SDS011;1643;47.746;9.000;2023-03-23T08:20:56;6.00;;;4.23;;
3261;SDS011;1643;47.746;9.000;2023-03-23T08:23:23;7.57;;;4.83;;
3261;SDS011;1643;47.746;9.000;2023-03-23T08:25:48;4.50;;;4.10;;
3261;SDS011;1643;47.746;9.000;2023-03-23T08:28:16;4.40;;;4.00;;
3261;SDS011;1643;47.746;9.000;2023-03-23T08:30:42;6.33;;;5.10;;
3261;SDS011;1643;47.746;9.000;2023-03-23T08:33:08;4.73;;;4.03;;
3261;SDS011;1643;47.746;9.000;2023-03-23T08:35:35;7.13;;;5.03;;
3261;SDS011;1643;47.746;9.000;2023-03-23T08:38:01;5.00;;;4.13;;
3261;SDS011;1643;47.746;9.000;2023-03-23T08:40:28;4.40;;;3.73;;
3261;SDS011;1643;47.746;9.000;2023-03-23T08:42:54;4.90;;;3.93;;
3261;SDS011;1643;47.746;9.000;2023-03-23T08:45:21;4.53;;;3.77;;
3261;SDS011;1643;47.746;9.000;2023-03-23T08:47:49;3.87;;;3.40;;
3261;SDS011;1643;47.746;9.000;2023-03-23T08:50:18;4.93;;;3.70;;
3261;SDS011;1643;47.746;9.000;2023-03-23T08:52:47;4.57;;;3.60;;
3261;SDS011;1643;47.746;9.000;2023-03-23T08:55:14;4.37;;;3.10;;
3261;SDS011;1643;47.746;9.000;2023-03-23T08:57:40;4.70;;;3.40;;
3261;SDS011;1643;47.746;9.000;2023-03-23T09:00:08;4.57;;;3.67;;
3261;SDS011;1643;47.746;9.000;2023-03-23T09:02:44;3.77;;;3.40;;
3261;SDS011;1643;47.746;9.000;2023-03-23T09:05:12;4.80;;;3.10;;
3261;SDS011;1643;47.746;9.000;2023-03-23T09:07:39;5.60;;;3.13;;
3261;SDS011;1643;47.746;9.000;2023-03-23T09:10:07;3.40;;;3.00;;
3261;SDS011;1643;47.746;9.000;2023-03-23T09:12:34;3.97;;;3.03;;
3261;SDS011;1643;47.746;9.000;2023-03-23T09:15:01;4.90;;;3.40;;
3261;SDS011;1643;47.746;9.000;2023-03-23T09:17:33;4.07;;;3.67;;
3261;SDS011;1643;47.746;9.000;2023-03-23T09:20:08;3.50;;;3.20;;
3261;SDS011;1643;47.746;9.000;2023-03-23T09:22:40;3.20;;;2.80;;
3261;SDS011;1643;47.746;9.000;2023-03-23T09:25:13;3.60;;;3.27;;
3261;SDS011;1643;47.746;9.000;2023-03-23T09:27:42;3.10;;;2.63;;
3261;SDS011;1643;47.746;9.000;2023-03-23T09:30:11;3.57;;;3.10;;
3261;SDS011;1643;47.746;9.000;2023-03-23T09:32:39;8.63;;;2.70;;
3261;SDS011;1643;47.746;9.000;2023-03-23T09:35:06;3.30;;;2.47;;
3261;SDS011;1643;47.746;9.000;2023-03-23T09:37:34;4.23;;;2.60;;
3261;SDS011;1643;47.746;9.000;2023-03-23T09:40:03;3.13;;;2.83;;
3261;SDS011;1643;47.746;9.000;2023-03-23T09:42:44;3.23;;;2.80;;
3261;SDS011;1643;47.746;9.000;2023-03-23T09:45:27;3.90;;;2.63;;
3261;SDS011;1643;47.746;9.000;2023-03-23T09:48:19;2.40;;;2.20;;
3261;SDS011;1643;47.746;9.000;2023-03-23T09:50:49;5.93;;;2.40;;
3261;SDS011;1643;47.746;9.000;2023-03-23T09:53:32;3.80;;;2.30;;
3261;SDS011;1643;47.746;9.000;2023-03-23T09:56:05;2.57;;;2.37;;
3261;SDS011;1643;47.746;9.000;2023-03-23T09:58:49;3.73;;;2.37;;
3261;SDS011;1643;47.746;9.000;2023-03-23T10:01:23;3.53;;;2.40;;
3261;SDS011;1643;47.746;9.000;2023-03-23T10:03:52;4.50;;;2.37;;
3261;SDS011;1643;47.746;9.000;2023-03-23T10:06:28;2.33;;;2.13;;
3261;SDS011;1643;47.746;9.000;2023-03-23T10:08:55;2.60;;;2.27;;
3261;SDS011;1643;47.746;9.000;2023-03-23T10:11:36;2.00;;;1.90;;
3261;SDS011;1643;47.746;9.000;2023-03-23T10:19:51;2.80;;;2.60;;
3261;SDS011;1643;47.746;9.000;2023-03-23T10:22:58;2.80;;;2.60;;
3261;SDS011;1643;47.746;9.000;2023-03-23T10:25:28;3.40;;;2.77;;
3261;SDS011;1643;47.746;9.000;2023-03-23T10:30:36;3.17;;;2.70;;
3261;SDS011;1643;47.746;9.000;2023-03-23T10:35:36;5.40;;;2.40;;
3261;SDS011;1643;47.746;9.000;2023-03-23T10:38:15;3.40;;;2.87;;
3261;SDS011;1643;47.746;9.000;2023-03-23T10:41:02;3.03;;;2.50;;
3261;SDS011;1643;47.746;9.000;2023-03-23T10:43:34;2.80;;;2.37;;
3261;SDS011;1643;47.746;9.000;2023-03-23T10:46:01;2.10;;;2.00;;
3261;SDS011;1643;47.746;9.000;2023-03-23T10:48:31;2.20;;;2.00;;
3261;SDS011;1643;47.746;9.000;2023-03-23T10:51:02;2.47;;;1.80;;
3261;SDS011;1643;47.746;9.000;2023-03-23T10:53:36;2.83;;;1.90;;
3261;SDS011;1643;47.746;9.000;2023-03-23T10:56:04;2.53;;;1.90;;
3261;SDS011;1643;47.746;9.000;2023-03-23T10:58:32;1.73;;;1.60;;
3261;SDS011;1643;47.746;9.000;2023-03-23T11:01:00;2.73;;;1.80;;
3261;SDS011;1643;47.746;9.000;2023-03-23T11:05:59;2.23;;;1.97;;
3261;SDS011;1643;47.746;9.000;2023-03-23T11:08:29;3.97;;;1.80;;
3261;SDS011;1643;47.746;9.000;2023-03-23T11:13:38;2.00;;;1.80;;
3261;SDS011;1643;47.746;9.000;2023-03-23T11:16:08;2.40;;;1.90;;
3261;SDS011;1643;47.746;9.000;2023-03-23T11:18:39;2.60;;;2.20;;
3261;SDS011;1643;47.746;9.000;2023-03-23T11:21:07;2.67;;;1.80;;
3261;SDS011;1643;47.746;9.000;2023-03-23T11:23:37;2.60;;;1.90;;
3261;SDS011;1643;47.746;9.000;2023-03-23T11:26:12;2.03;;;1.93;;
3261;SDS011;1643;47.746;9.000;2023-03-23T11:28:44;2.37;;;2.13;;
3261;SDS011;1643;47.746;9.000;2023-03-23T11:31:12;2.47;;;2.17;;
3261;SDS011;1643;47.746;9.000;2023-03-23T11:36:28;2.90;;;1.87;;
3261;SDS011;1643;47.746;9.000;2023-03-23T11:39:23;2.30;;;2.10;;
3261;SDS011;1643;47.746;9.000;2023-03-23T11:41:52;4.73;;;2.70;;
3261;SDS011;1643;47.746;9.000;2023-03-23T11:44:20;2.50;;;2.10;;
3261;SDS011;1643;47.746;9.000;2023-03-23T11:49:22;2.30;;;2.10;;
3261;SDS011;1643;47.746;9.000;2023-03-23T11:51:58;3.33;;;1.97;;
3261;SDS011;1643;47.746;9.000;2023-03-23T11:54:32;2.23;;;1.97;;
3261;SDS011;1643;47.746;9.000;2023-03-23T11:57:05;2.30;;;1.77;;
3261;SDS011;1643;47.746;9.000;2023-03-23T11:59:34;2.70;;;2.10;;
3261;SDS011;1643;47.746;9.000;2023-03-23T12:10:34;2.13;;;2.00;;
3261;SDS011;1643;47.746;9.000;2023-03-23T12:18:45;2.17;;;1.97;;
3261;SDS011;1643;47.746;9.000;2023-03-23T12:26:47;2.00;;;1.83;;
3261;SDS011;1643;47.746;9.000;2023-03-23T12:29:31;2.80;;;1.97;;
3261;SDS011;1643;47.746;9.000;2023-03-23T12:37:51;4.50;;;2.20;;
3261;SDS011;1643;47.746;9.000;2023-03-23T12:43:24;2.00;;;1.90;;
3261;SDS011;1643;47.746;9.000;2023-03-23T12:46:13;2.40;;;1.73;;
3261;SDS011;1643;47.746;9.000;2023-03-23T12:48:55;2.93;;;1.70;;
3261;SDS011;1643;47.746;9.000;2023-03-23T13:02:10;1.97;;;1.80;;
3261;SDS011;1643;47.746;9.000;2023-03-23T13:04:58;3.27;;;2.10;;
3261;SDS011;1643;47.746;9.000;2023-03-23T13:07:47;3.87;;;2.10;;
3261;SDS011;1643;47.746;9.000;2023-03-23T13:10:50;2.20;;;2.00;;
3261;SDS011;1643;47.746;9.000;2023-03-23T13:13:14;2.20;;;1.70;;
3261;SDS011;1643;47.746;9.000;2023-03-23T13:18:18;3.47;;;1.90;;
3261;SDS011;1643;47.746;9.000;2023-03-23T13:21:00;2.30;;;1.67;;
3261;SDS011;1643;47.746;9.000;2023-03-23T13:23:34;2.10;;;1.90;;
3261;SDS011;1643;47.746;9.000;2023-03-23T13:26:13;2.47;;;1.90;;
3261;SDS011;1643;47.746;9.000;2023-03-23T13:31:25;2.23;;;2.03;;
3261;SDS011;1643;47.746;9.000;2023-03-23T13:34:01;2.30;;;2.10;;
3261;SDS011;1643;47.746;9.000;2023-03-23T13:36:32;2.40;;;1.93;;
3261;SDS011;1643;47.746;9.000;2023-03-23T13:39:05;2.23;;;1.70;;
3261;SDS011;1643;47.746;9.000;2023-03-23T13:44:25;3.97;;;2.37;;
3261;SDS011;1643;47.746;9.000;2023-03-23T13:46:53;2.50;;;2.30;;
3261;SDS011;1643;47.746;9.000;2023-03-23T13:49:31;3.70;;;2.10;;
3261;SDS011;1643;47.746;9.000;2023-03-23T13:52:06;3.30;;;2.00;;
3261;SDS011;1643;47.746;9.000;2023-03-23T13:54:44;2.63;;;2.43;;
3261;SDS011;1643;47.746;9.000;2023-03-23T13:57:20;4.40;;;2.00;;
3261;SDS011;1643;47.746;9.000;2023-03-23T13:59:55;3.83;;;2.00;;
3261;SDS011;1643;47.746;9.000;2023-03-23T14:02:38;2.53;;;2.23;;
3261;SDS011;1643;47.746;9.000;2023-03-23T14:05:49;1.87;;;1.73;;
3261;SDS011;1643;47.746;9.000;2023-03-23T14:07:56;1.83;;;1.67;;
3261;SDS011;1643;47.746;9.000;2023-03-23T14:10:30;4.73;;;1.97;;
3261;SDS011;1643;47.746;9.000;2023-03-23T14:12:59;3.13;;;2.37;;
3261;SDS011;1643;47.746;9.000;2023-03-23T14:15:30;2.10;;;1.90;;
3261;SDS011;1643;47.746;9.000;2023-03-23T14:17:56;2.63;;;2.43;;
3261;SDS011;1643;47.746;9.000;2023-03-23T14:20:26;2.50;;;2.00;;
3261;SDS011;1643;47.746;9.000;2023-03-23T14:22:58;1.97;;;1.87;;
3261;SDS011;1643;47.746;9.000;2023-03-23T14:25:26;1.90;;;1.77;;
3261;SDS011;1643;47.746;9.000;2023-03-23T14:27:53;2.10;;;1.90;;
3261;SDS011;1643;47.746;9.000;2023-03-23T14:30:20;2.20;;;2.00;;
3261;SDS011;1643;47.746;9.000;2023-03-23T14:32:47;3.90;;;2.27;;
3261;SDS011;1643;47.746;9.000;2023-03-23T14:35:17;2.03;;;1.90;;
3261;SDS011;1643;47.746;9.000;2023-03-23T14:37:53;2.50;;;1.97;;
3261;SDS011;1643;47.746;9.000;2023-03-23T14:40:19;1.80;;;1.70;;
3261;SDS011;1643;47.746;9.000;2023-03-23T14:42:46;3.07;;;1.90;;
3261;SDS011;1643;47.746;9.000;2023-03-23T14:45:14;4.57;;;1.80;;
3261;SDS011;1643;47.746;9.000;2023-03-23T14:47:44;2.30;;;1.87;;
3261;SDS011;1643;47.746;9.000;2023-03-23T14:53:03;2.27;;;2.07;;
3261;SDS011;1643;47.746;9.000;2023-03-23T14:55:42;2.60;;;2.40;;
3261;SDS011;1643;47.746;9.000;2023-03-23T14:58:12;2.23;;;1.80;;
3261;SDS011;1643;47.746;9.000;2023-03-23T15:00:41;2.47;;;2.27;;
3261;SDS011;1643;47.746;9.000;2023-03-23T15:03:12;2.23;;;2.03;;
3261;SDS011;1643;47.746;9.000;2023-03-23T15:05:46;3.07;;;1.90;;
3261;SDS011;1643;47.746;9.000;2023-03-23T15:08:18;2.47;;;2.10;;
3261;SDS011;1643;47.746;9.000;2023-03-23T15:13:44;3.07;;;2.03;;
3261;SDS011;1643;47.746;9.000;2023-03-23T15:16:18;2.33;;;1.80;;
3261;SDS011;1643;47.746;9.000;2023-03-23T15:18:48;3.40;;;2.00;;
3261;SDS011;1643;47.746;9.000;2023-03-23T15:21:35;3.27;;;2.27;;
3261;SDS011;1643;47.746;9.000;2023-03-23T15:24:25;2.30;;;2.10;;
3261;SDS011;1643;47.746;9.000;2023-03-23T15:27:15;2.40;;;2.00;;
3261;SDS011;1643;47.746;9.000;2023-03-23T15:32:21;2.03;;;1.93;;
3261;SDS011;1643;47.746;9.000;2023-03-23T15:34:48;6.33;;;2.30;;
3261;SDS011;1643;47.746;9.000;2023-03-23T15:37:18;3.60;;;2.43;;
3261;SDS011;1643;47.746;9.000;2023-03-23T15:39:47;3.53;;;2.30;;
3261;SDS011;1643;47.746;9.000;2023-03-23T15:42:30;2.80;;;2.00;;
3261;SDS011;1643;47.746;9.000;2023-03-23T15:47:45;3.57;;;2.27;;
3261;SDS011;1643;47.746;9.000;2023-03-23T15:50:20;2.30;;;2.10;;
3261;SDS011;1643;47.746;9.000;2023-03-23T15:52:58;3.10;;;2.37;;
3261;SDS011;1643;47.746;9.000;2023-03-23T15:55:24;2.70;;;2.03;;
3261;SDS011;1643;47.746;9.000;2023-03-23T15:57:55;7.13;;;2.27;;
3261;SDS011;1643;47.746;9.000;2023-03-23T16:00:23;3.37;;;2.20;;
3261;SDS011;1643;47.746;9.000;2023-03-23T16:02:56;4.67;;;2.47;;
3261;SDS011;1643;47.746;9.000;2023-03-23T16:05:24;2.30;;;1.80;;
3261;SDS011;1643;47.746;9.000;2023-03-23T16:07:51;2.30;;;2.10;;
3261;SDS011;1643;47.746;9.000;2023-03-23T16:10:18;3.17;;;2.50;;
3261;SDS011;1643;47.746;9.000;2023-03-23T16:12:45;2.77;;;2.47;;
3261;SDS011;1643;47.746;9.000;2023-03-23T16:15:12;2.40;;;2.20;;
3261;SDS011;1643;47.746;9.000;2023-03-23T16:17:39;2.47;;;1.90;;
3261;SDS011;1643;47.746;9.000;2023-03-23T16:20:10;3.47;;;2.93;;
3261;SDS011;1643;47.746;9.000;2023-03-23T16:22:40;2.43;;;2.23;;
3261;SDS011;1643;47.746;9.000;2023-03-23T16:25:06;3.10;;;1.80;;
3261;SDS011;1643;47.746;9.000;2023-03-23T16:27:33;3.33;;;2.60;;
3261;SDS011;1643;47.746;9.000;2023-03-23T16:29:59;4.03;;;2.10;;
3261;SDS011;1643;47.746;9.000;2023-03-23T16:32:27;5.80;;;2.53;;
3261;SDS011;1643;47.746;9.000;2023-03-23T16:34:53;3.23;;;2.23;;
3261;SDS011;1643;47.746;9.000;2023-03-23T16:37:19;2.80;;;2.50;;
3261;SDS011;1643;47.746;9.000;2023-03-23T16:39:45;2.37;;;2.17;;
3261;SDS011;1643;47.746;9.000;2023-03-23T16:42:11;2.90;;;2.30;;
3261;SDS011;1643;47.746;9.000;2023-03-23T16:44:36;2.50;;;2.30;;
3261;SDS011;1643;47.746;9.000;2023-03-23T16:47:02;2.30;;;2.10;;
3261;SDS011;1643;47.746;9.000;2023-03-23T16:49:28;2.50;;;2.00;;
3261;SDS011;1643;47.746;9.000;2023-03-23T16:51:53;4.10;;;2.20;;
3261;SDS011;1643;47.746;9.000;2023-03-23T16:54:19;2.43;;;2.23;;
3261;SDS011;1643;47.746;9.000;2023-03-23T16:56:45;4.50;;;3.00;;
3261;SDS011;1643;47.746;9.000;2023-03-23T16:59:12;2.20;;;2.03;;
3261;SDS011;1643;47.746;9.000;2023-03-23T17:01:38;2.97;;;1.93;;
3261;SDS011;1643;47.746;9.000;2023-03-23T17:04:05;3.47;;;2.23;;
3261;SDS011;1643;47.746;9.000;2023-03-23T17:06:31;2.50;;;2.30;;
3261;SDS011;1643;47.746;9.000;2023-03-23T17:08:57;2.20;;;1.90;;
3261;SDS011;1643;47.746;9.000;2023-03-23T17:11:22;3.37;;;2.10;;
3261;SDS011;1643;47.746;9.000;2023-03-23T17:13:48;2.60;;;1.83;;
3261;SDS011;1643;47.746;9.000;2023-03-23T17:16:13;2.17;;;2.00;;
3261;SDS011;1643;47.746;9.000;2023-03-23T17:18:39;2.07;;;1.87;;